createdAt,value
2022-10-02T00:01:55.719Z,13.13
2022-10-02T00:05:02.560Z,12.07
2022-10-02T00:08:39.902Z,11.43
2022-10-02T00:11:48.387Z,15.63
2022-10-02T00:14:54.334Z,14.65
2022-10-02T00:18:01.471Z,11.43
2022-10-02T00:21:41.744Z,9.13
2022-10-02T00:24:50.409Z,11.68
2022-10-02T00:28:12.349Z,10.20
2022-10-02T00:31:22.903Z,11.80
2022-10-02T00:34:42.183Z,12.65
2022-10-02T00:37:52.770Z,14.43
2022-10-02T00:41:09.323Z,11.73
2022-10-02T00:45:00.140Z,12.00
2022-10-02T00:48:29.824Z,14.63
2022-10-02T00:51:52.223Z,12.73
2022-10-02T00:55:08.503Z,17.77
2022-10-02T00:58:28.788Z,11.60
2022-10-02T01:01:49.182Z,14.25
2022-10-02T01:04:50.601Z,10.45
2022-10-02T01:07:53.965Z,8.07
2022-10-02T01:13:57.505Z,10.68
2022-10-02T01:16:59.020Z,10.02
2022-10-02T01:20:03.641Z,10.95
2022-10-02T01:23:23.446Z,11.27
2022-10-02T01:26:24.782Z,10.80
2022-10-02T01:29:26.169Z,9.57
2022-10-02T01:32:28.411Z,10.43
2022-10-02T01:35:33.498Z,12.23
2022-10-02T01:38:35.626Z,9.45
2022-10-02T01:41:43.128Z,12.60
2022-10-02T01:44:45.541Z,9.32
2022-10-02T01:47:57.239Z,9.30
2022-10-02T01:51:10.011Z,4.95
2022-10-02T01:54:17.360Z,8.17
2022-10-02T01:57:21.703Z,9.05
2022-10-02T02:00:24.611Z,10.20
2022-10-02T02:04:04.637Z,14.65
2022-10-02T02:07:42.185Z,9.15
2022-10-02T02:10:51.848Z,8.38
2022-10-02T02:14:11.665Z,8.32
2022-10-02T02:17:22.568Z,11.60
2022-10-02T02:20:36.435Z,6.97
2022-10-02T02:23:41.233Z,13.85
2022-10-02T02:26:44.913Z,7.22
2022-10-02T02:29:50.106Z,10.20
2022-10-02T02:32:55.904Z,9.52
2022-10-02T02:36:03.764Z,10.27
2022-10-02T02:39:11.995Z,6.15
2022-10-02T02:42:18.166Z,7.15
2022-10-02T02:45:24.957Z,7.70
2022-10-02T02:48:31.221Z,9.75
2022-10-02T02:51:37.906Z,8.75
2022-10-02T02:54:50.217Z,8.70
2022-10-02T02:58:12.862Z,9.13
2022-10-02T03:01:14.382Z,6.18
2022-10-02T03:04:15.789Z,9.48
2022-10-02T03:07:17.574Z,8.63
2022-10-02T03:10:28.490Z,10.07
2022-10-02T03:13:57.322Z,6.85
2022-10-02T03:17:08.043Z,10.88
2022-10-02T03:20:40.530Z,10.63
2022-10-02T03:23:56.362Z,8.57
2022-10-02T03:27:07.051Z,10.43
2022-10-02T03:30:11.452Z,10.05
2022-10-02T03:33:15.927Z,6.20
2022-10-02T03:36:17.646Z,7.53
2022-10-02T03:39:26.458Z,11.35
2022-10-02T03:42:31.973Z,7.80
2022-10-02T03:45:50.549Z,6.55
2022-10-02T03:48:52.535Z,9.75
2022-10-02T03:51:53.937Z,6.18
2022-10-02T03:55:13.072Z,10.77
2022-10-02T03:58:16.707Z,8.40
2022-10-02T04:01:26.884Z,8.32
2022-10-02T04:04:40.304Z,6.57
2022-10-02T04:07:50.253Z,6.07
2022-10-02T04:11:00.912Z,10.63
2022-10-02T04:14:35.156Z,8.77
2022-10-02T04:17:59.256Z,9.20
2022-10-02T04:21:33.092Z,12.75
2022-10-02T04:24:43.348Z,7.72
2022-10-02T04:27:49.801Z,12.15
2022-10-02T04:30:53.285Z,8.85
2022-10-02T04:34:01.669Z,6.20
2022-10-02T04:37:10.713Z,12.35
2022-10-02T04:41:06.382Z,11.98
2022-10-02T04:44:19.698Z,11.23
2022-10-02T04:47:23.971Z,12.38
2022-10-02T04:50:37.576Z,18.90
2022-10-02T04:57:02.526Z,6.23
2022-10-02T05:00:19.717Z,6.70
2022-10-02T05:03:33.431Z,13.55
2022-10-02T05:06:59.112Z,8.95
2022-10-02T05:10:24.983Z,13.57
2022-10-02T05:13:32.324Z,14.07
2022-10-02T05:17:15.875Z,12.98
2022-10-02T05:20:52.408Z,14.43
2022-10-02T05:24:15.554Z,14.77
2022-10-02T05:27:27.275Z,12.30
2022-10-02T05:31:01.753Z,14.48
2022-10-02T05:34:14.469Z,13.02
2022-10-02T05:37:42.191Z,13.57
2022-10-02T05:41:01.967Z,12.88
2022-10-02T05:44:14.188Z,15.05
2022-10-02T05:47:26.371Z,24.40
2022-10-02T05:50:33.395Z,17.38
2022-10-02T05:53:40.584Z,17.10
2022-10-02T05:56:54.532Z,9.77
2022-10-02T06:00:33.907Z,8.70
2022-10-02T06:03:43.336Z,8.23
2022-10-02T06:06:46.725Z,10.18
2022-10-02T06:12:58.466Z,8.10
2022-10-02T06:16:13.102Z,7.95
2022-10-02T06:19:30.558Z,4.95
2022-10-02T06:22:44.073Z,6.85
2022-10-02T06:29:03.695Z,7.47
2022-10-02T06:32:37.389Z,8.00
2022-10-02T06:35:58.747Z,5.75
2022-10-02T06:39:38.469Z,9.93
2022-10-02T06:42:57.794Z,7.50
2022-10-02T06:46:11.052Z,8.15
2022-10-02T06:49:37.043Z,10.70
2022-10-02T06:53:15.383Z,7.15
2022-10-02T06:56:45.595Z,6.78
2022-10-02T07:00:04.594Z,8.90
2022-10-02T07:03:29.359Z,9.63
2022-10-02T07:06:41.292Z,6.72
2022-10-02T07:10:16.641Z,6.57
2022-10-02T07:13:48.900Z,8.32
2022-10-02T07:17:01.211Z,5.68
2022-10-02T07:20:29.055Z,14.05
2022-10-02T07:23:30.351Z,7.30
2022-10-02T07:26:47.041Z,13.77
2022-10-02T07:29:51.728Z,8.70
2022-10-02T07:33:09.007Z,8.73
2022-10-02T07:36:26.968Z,8.02
2022-10-02T07:39:49.448Z,5.90
2022-10-02T07:43:08.927Z,4.63
2022-10-02T07:46:28.760Z,5.53
2022-10-02T07:49:39.252Z,6.72
2022-10-02T07:53:13.129Z,7.70
2022-10-02T07:56:16.657Z,8.60
2022-10-02T07:59:18.612Z,8.70
2022-10-02T08:02:30.457Z,8.68
2022-10-02T08:05:45.673Z,9.68
2022-10-02T08:09:21.853Z,9.25
2022-10-02T08:12:39.821Z,6.82
2022-10-02T08:15:44.140Z,7.32
2022-10-02T08:19:01.423Z,7.82
2022-10-02T08:22:30.622Z,8.45
2022-10-02T08:25:43.077Z,8.07
2022-10-02T08:29:03.029Z,10.25
2022-10-02T08:32:09.714Z,11.73
2022-10-02T08:35:12.826Z,13.90
2022-10-02T08:38:32.431Z,11.32
2022-10-02T08:41:42.529Z,11.65
2022-10-02T08:44:56.053Z,11.48
2022-10-02T08:51:07.830Z,9.85
2022-10-02T08:54:44.667Z,11.75
2022-10-02T08:58:01.195Z,12.07
2022-10-02T09:01:23.789Z,11.35
2022-10-02T09:04:44.018Z,10.35
2022-10-02T09:08:04.339Z,17.20
2022-10-02T09:11:53.679Z,7.63
2022-10-02T09:15:05.971Z,11.70
2022-10-02T09:18:44.932Z,11.80
2022-10-02T09:21:54.661Z,13.18
2022-10-02T09:25:18.296Z,10.52
2022-10-02T09:28:34.148Z,12.73
2022-10-02T09:31:57.111Z,10.38
2022-10-02T09:35:19.440Z,15.70
2022-10-02T09:38:26.644Z,9.38
2022-10-02T09:41:58.346Z,3.85
2022-10-02T09:45:21.012Z,7.93
2022-10-02T09:48:44.041Z,8.13
2022-10-02T09:52:00.633Z,8.67
2022-10-02T09:55:21.589Z,14.88
2022-10-02T09:58:34.858Z,11.68
2022-10-02T10:02:04.250Z,17.10
2022-10-02T10:05:34.979Z,10.35
2022-10-02T10:09:19.841Z,6.57
2022-10-02T10:12:33.717Z,4.38
2022-10-02T10:15:56.398Z,8.02
2022-10-02T10:19:03.702Z,11.35
2022-10-02T10:22:15.434Z,9.20
2022-10-02T10:25:42.500Z,15.20
2022-10-02T10:29:14.646Z,10.15
2022-10-02T10:32:52.978Z,9.65
2022-10-02T10:36:28.502Z,9.07
2022-10-02T10:39:54.644Z,5.72
2022-10-02T10:43:30.003Z,9.77
2022-10-02T10:46:49.704Z,8.05
2022-10-02T10:50:14.052Z,6.97
2022-10-02T10:53:18.355Z,8.30
2022-10-02T10:56:34.915Z,9.55
2022-10-02T11:00:08.681Z,6.93
2022-10-02T11:03:26.475Z,9.15
2022-10-02T11:07:00.552Z,11.07
2022-10-02T11:10:35.323Z,16.73
2022-10-02T11:13:55.828Z,14.82
2022-10-02T11:17:25.024Z,10.23
2022-10-02T11:20:29.076Z,7.20
2022-10-02T11:24:12.002Z,5.65
2022-10-02T11:27:32.238Z,11.00
2022-10-02T11:30:41.455Z,9.25
2022-10-02T11:34:20.357Z,7.35
2022-10-02T11:37:54.908Z,8.77
2022-10-02T11:41:18.106Z,7.90
2022-10-02T11:44:31.610Z,11.25
2022-10-02T11:50:46.531Z,8.57
2022-10-02T11:54:03.187Z,9.25
2022-10-02T11:57:23.374Z,8.27
2022-10-02T12:00:56.655Z,10.95
2022-10-02T12:04:20.698Z,9.07
2022-10-02T12:07:45.250Z,8.13
2022-10-02T12:11:04.568Z,8.98
2022-10-02T12:14:19.262Z,7.97
2022-10-02T12:17:32.491Z,9.68
2022-10-02T12:20:42.894Z,10.13
2022-10-02T12:23:47.287Z,13.40
2022-10-02T12:27:15.359Z,9.55
2022-10-02T12:30:31.848Z,10.05
2022-10-02T12:34:10.103Z,12.13
2022-10-02T12:37:18.192Z,9.95
2022-10-02T12:40:35.508Z,12.88
2022-10-02T12:43:51.812Z,13.80
2022-10-02T12:47:18.227Z,10.88
2022-10-02T12:50:55.099Z,7.63
2022-10-02T12:54:34.485Z,11.40
2022-10-02T12:57:56.192Z,13.02
2022-10-02T13:01:16.134Z,9.85
2022-10-02T13:04:45.861Z,15.18
2022-10-02T13:08:05.514Z,17.08
2022-10-02T13:11:31.291Z,14.93
2022-10-02T13:14:45.153Z,16.73
2022-10-02T13:18:02.389Z,18.88
2022-10-02T13:21:23.751Z,14.05
2022-10-02T13:24:45.601Z,12.00
2022-10-02T13:28:11.660Z,15.68
2022-10-02T13:31:40.350Z,11.50
2022-10-02T13:35:01.477Z,17.35
2022-10-02T13:38:14.853Z,11.95
2022-10-02T13:44:29.466Z,10.60
2022-10-02T13:47:41.945Z,10.55
2022-10-02T13:50:57.559Z,11.02
2022-10-02T13:54:22.330Z,9.75
2022-10-02T13:57:35.779Z,16.67
2022-10-02T14:03:56.590Z,14.20
2022-10-02T14:07:22.370Z,12.98
2022-10-02T14:10:26.628Z,12.77
2022-10-02T14:13:34.667Z,12.40
2022-10-02T14:16:49.094Z,10.40
2022-10-02T14:20:27.335Z,11.00
2022-10-02T14:23:40.656Z,13.88
2022-10-02T14:27:10.523Z,15.45
2022-10-02T14:30:46.492Z,18.60
2022-10-02T14:34:07.560Z,10.63
2022-10-02T14:37:46.348Z,9.75
2022-10-02T14:40:50.453Z,14.18
2022-10-02T14:44:09.049Z,13.70
2022-10-02T14:47:28.458Z,12.25
2022-10-02T14:50:43.920Z,12.45
2022-10-02T14:54:01.556Z,14.80
2022-10-02T14:57:02.845Z,12.43
2022-10-02T15:00:23.625Z,13.32
2022-10-02T15:03:40.165Z,9.50
2022-10-02T15:07:10.937Z,15.82
2022-10-02T15:10:33.709Z,16.10
2022-10-02T15:13:45.457Z,18.33
2022-10-02T15:16:49.121Z,13.18
2022-10-02T15:20:05.739Z,15.15
2022-10-02T15:23:12.667Z,14.52
2022-10-02T15:26:26.062Z,9.75
2022-10-02T15:33:21.555Z,13.30
2022-10-02T15:36:48.674Z,17.50
2022-10-02T15:40:20.638Z,9.68
2022-10-02T15:43:43.567Z,15.65
2022-10-02T15:46:55.995Z,11.23
2022-10-02T15:50:00.323Z,13.60
2022-10-02T15:53:20.307Z,16.90
2022-10-02T15:56:47.888Z,41.03
2022-10-02T15:59:59.055Z,18.77
2022-10-02T16:03:16.459Z,19.05
2022-10-02T16:06:48.132Z,26.83
2022-10-02T16:09:52.512Z,18.00
2022-10-02T16:13:19.119Z,23.33
2022-10-02T16:16:57.707Z,57.53
2022-10-02T16:20:29.843Z,78.70
2022-10-02T16:23:34.095Z,23.60
2022-10-02T16:26:55.372Z,23.08
2022-10-02T16:30:05.346Z,29.38
2022-10-02T16:33:17.980Z,18.58
2022-10-02T16:36:45.392Z,24.20
2022-10-02T16:39:55.515Z,39.97
2022-10-02T16:43:23.550Z,45.42
2022-10-02T16:46:35.864Z,36.30
2022-10-02T16:49:58.694Z,43.47
2022-10-02T16:53:06.454Z,17.98
2022-10-02T16:56:51.088Z,18.58
2022-10-02T17:00:23.798Z,17.60
2022-10-02T17:03:33.258Z,23.15
2022-10-02T17:07:01.613Z,21.83
2022-10-02T17:10:20.107Z,20.90
2022-10-02T17:13:44.309Z,19.77
2022-10-02T17:16:51.482Z,11.63
2022-10-02T17:20:02.071Z,21.52
2022-10-02T17:23:13.970Z,14.35
2022-10-02T17:26:33.032Z,16.58
2022-10-02T17:29:46.802Z,23.70
2022-10-02T17:32:55.272Z,17.15
2022-10-02T17:36:17.835Z,21.83
2022-10-02T17:39:42.830Z,18.95
2022-10-02T17:43:04.258Z,12.75
2022-10-02T17:46:20.563Z,12.45
2022-10-02T17:49:30.872Z,16.35
2022-10-02T17:52:45.618Z,15.00
2022-10-02T17:56:11.522Z,14.98
2022-10-02T17:59:48.151Z,17.42
2022-10-02T18:03:07.458Z,17.80
2022-10-02T18:06:33.514Z,15.48
2022-10-02T18:09:56.603Z,21.10
2022-10-02T18:13:25.271Z,23.55
2022-10-02T18:16:45.774Z,28.38
2022-10-02T18:20:20.909Z,20.15
2022-10-02T18:23:28.308Z,22.70
2022-10-02T18:26:48.952Z,20.77
2022-10-02T18:30:17.580Z,21.73
2022-10-02T18:33:39.088Z,21.27
2022-10-02T18:37:20.100Z,21.13
2022-10-02T18:40:29.921Z,16.98
2022-10-02T18:43:48.012Z,17.25
2022-10-02T18:47:37.540Z,19.15
2022-10-02T18:51:00.944Z,13.77
2022-10-02T18:54:17.337Z,14.15
2022-10-02T18:57:43.225Z,13.38
2022-10-02T19:00:59.578Z,22.77
2022-10-02T19:04:42.298Z,25.65
2022-10-02T19:07:57.904Z,15.35
2022-10-02T19:10:59.250Z,16.15
2022-10-02T19:14:13.334Z,21.42
2022-10-02T19:17:21.958Z,14.98
2022-10-02T19:21:02.678Z,14.65
2022-10-02T19:24:03.979Z,17.92
2022-10-02T19:27:15.102Z,19.63
2022-10-02T19:30:25.680Z,18.23
2022-10-02T19:33:38.534Z,18.88
2022-10-02T19:36:46.591Z,13.87
2022-10-02T19:39:52.848Z,15.18
2022-10-02T19:43:05.860Z,21.02
2022-10-02T19:46:07.848Z,19.25
2022-10-02T19:49:19.251Z,21.45
2022-10-02T19:52:36.395Z,23.15
2022-10-02T19:55:41.583Z,16.17
2022-10-02T19:58:47.344Z,16.67
2022-10-02T20:01:52.107Z,16.10
2022-10-02T20:04:58.328Z,17.35
2022-10-02T20:08:07.106Z,20.80
2022-10-02T20:11:21.277Z,16.80
2022-10-02T20:14:28.191Z,15.35
2022-10-02T20:17:30.240Z,11.43
2022-10-02T20:20:36.382Z,20.98
2022-10-02T20:23:42.920Z,17.42
2022-10-02T20:26:46.831Z,12.95
2022-10-02T20:29:53.229Z,15.23
2022-10-02T20:33:17.581Z,15.82
2022-10-02T20:36:24.450Z,14.93
2022-10-02T20:39:32.257Z,14.30
2022-10-02T20:42:40.885Z,15.25
2022-10-02T20:45:50.286Z,15.88
2022-10-02T20:49:18.025Z,14.45
2022-10-02T20:52:49.238Z,16.52
2022-10-02T20:56:13.342Z,15.40
2022-10-02T20:59:29.914Z,13.15
2022-10-02T21:02:58.083Z,16.52
2022-10-02T21:06:11.522Z,15.20
2022-10-02T21:10:10.110Z,13.50
2022-10-02T21:13:22.543Z,16.33
2022-10-02T21:16:45.517Z,13.07
2022-10-02T21:20:33.165Z,16.83
2022-10-02T21:24:07.423Z,13.75
2022-10-02T21:27:58.090Z,13.88
2022-10-02T21:31:22.457Z,18.92
2022-10-02T21:34:58.875Z,12.73
2022-10-02T21:38:30.509Z,15.85
2022-10-02T21:41:58.072Z,13.88
2022-10-02T21:45:01.894Z,14.07
2022-10-02T21:48:39.799Z,13.95
2022-10-02T21:52:08.227Z,14.48
2022-10-02T21:55:46.684Z,9.93
2022-10-02T21:59:06.704Z,16.63
2022-10-02T22:02:25.954Z,17.67
2022-10-02T22:06:00.034Z,15.05
2022-10-02T22:09:25.693Z,18.77
2022-10-02T22:12:54.553Z,12.90
2022-10-02T22:16:10.856Z,15.57
2022-10-02T22:19:38.575Z,16.05
2022-10-02T22:22:59.458Z,11.93
2022-10-02T22:26:36.242Z,13.98
2022-10-02T22:29:48.191Z,15.45
2022-10-02T22:33:09.130Z,17.95
2022-10-02T22:36:32.189Z,14.93
2022-10-02T22:39:40.654Z,14.03
2022-10-02T22:42:48.801Z,16.63
2022-10-02T22:46:09.238Z,17.70
2022-10-02T22:49:20.793Z,19.77
2022-10-02T22:52:33.171Z,13.63
2022-10-02T22:55:44.586Z,19.52
2022-10-02T22:58:56.830Z,16.67
2022-10-02T23:02:06.240Z,15.60
2022-10-02T23:05:27.565Z,18.35
2022-10-02T23:08:56.845Z,11.48
2022-10-02T23:12:12.286Z,19.48
2022-10-02T23:15:28.086Z,11.55
2022-10-02T23:19:02.330Z,14.63
2022-10-02T23:22:08.071Z,14.95
2022-10-02T23:25:22.478Z,20.05
2022-10-02T23:28:26.827Z,17.23
2022-10-02T23:31:35.310Z,12.77
2022-10-02T23:34:46.079Z,16.05
2022-10-02T23:37:55.504Z,10.73
2022-10-02T23:41:16.119Z,18.15
2022-10-02T23:44:43.202Z,18.27
2022-10-02T23:47:50.484Z,14.95
2022-10-02T23:51:16.829Z,13.23
2022-10-02T23:54:24.232Z,16.05
2022-10-02T23:57:31.625Z,12.85
